sensor_id;sensor_type;location;lat;lon;timestamp;temperature;humidity
81161;DHT22;70637;48.514;14.500;2023-07-13T00:02:07;25.30;53.30
81161;DHT22;70637;48.514;14.500;2023-07-13T00:04:33;25.30;54.40
81161;DHT22;70637;48.514;14.500;2023-07-13T00:06:58;25.30;53.60
81161;DHT22;70637;48.514;14.500;2023-07-13T00:09:24;25.20;53.70
81161;DHT22;70637;48.514;14.500;2023-07-13T00:11:53;25.20;54.00
81161;DHT22;70637;48.514;14.500;2023-07-13T00:14:20;25.10;54.10
81161;DHT22;70637;48.514;14.500;2023-07-13T00:16:45;25.10;54.20
81161;DHT22;70637;48.514;14.500;2023-07-13T00:19:12;25.10;54.50
81161;DHT22;70637;48.514;14.500;2023-07-13T00:21:39;25.10;54.50
81161;DHT22;70637;48.514;14.500;2023-07-13T00:24:06;25.00;54.40
81161;DHT22;70637;48.514;14.500;2023-07-13T00:26:32;25.00;54.60
81161;DHT22;70637;48.514;14.500;2023-07-13T00:28:59;25.10;54.70
81161;DHT22;70637;48.514;14.500;2023-07-13T00:31:25;25.10;54.90
81161;DHT22;70637;48.514;14.500;2023-07-13T00:33:51;25.10;54.80
81161;DHT22;70637;48.514;14.500;2023-07-13T00:36:17;25.10;54.50
81161;DHT22;70637;48.514;14.500;2023-07-13T00:38:43;25.20;54.60
81161;DHT22;70637;48.514;14.500;2023-07-13T00:41:10;25.20;54.40
81161;DHT22;70637;48.514;14.500;2023-07-13T00:43:35;25.30;55.20
81161;DHT22;70637;48.514;14.500;2023-07-13T00:48:29;25.30;53.80
81161;DHT22;70637;48.514;14.500;2023-07-13T00:50:58;25.30;53.40
81161;DHT22;70637;48.514;14.500;2023-07-13T00:53:27;25.20;53.00
81161;DHT22;70637;48.514;14.500;2023-07-13T00:55:55;25.10;53.30
81161;DHT22;70637;48.514;14.500;2023-07-13T00:58:23;25.10;53.40
81161;DHT22;70637;48.514;14.500;2023-07-13T01:00:49;25.00;53.10
81161;DHT22;70637;48.514;14.500;2023-07-13T01:03:16;24.90;53.30
81161;DHT22;70637;48.514;14.500;2023-07-13T01:05:44;24.70;53.80
81161;DHT22;70637;48.514;14.500;2023-07-13T01:08:12;24.50;54.20
81161;DHT22;70637;48.514;14.500;2023-07-13T01:10:37;24.40;54.70
81161;DHT22;70637;48.514;14.500;2023-07-13T01:13:08;24.30;55.10
81161;DHT22;70637;48.514;14.500;2023-07-13T01:15:40;24.20;55.30
81161;DHT22;70637;48.514;14.500;2023-07-13T01:21:01;24.10;56.10
81161;DHT22;70637;48.514;14.500;2023-07-13T01:23:28;24.00;57.20
81161;DHT22;70637;48.514;14.500;2023-07-13T01:25:54;24.00;56.30
81161;DHT22;70637;48.514;14.500;2023-07-13T01:28:22;24.00;56.50
81161;DHT22;70637;48.514;14.500;2023-07-13T01:30:48;24.00;56.60
81161;DHT22;70637;48.514;14.500;2023-07-13T01:33:16;24.00;56.90
81161;DHT22;70637;48.514;14.500;2023-07-13T01:35:44;24.00;57.00
81161;DHT22;70637;48.514;14.500;2023-07-13T01:38:11;23.90;57.00
81161;DHT22;70637;48.514;14.500;2023-07-13T01:40:38;23.90;56.90
81161;DHT22;70637;48.514;14.500;2023-07-13T01:43:04;23.90;57.00
81161;DHT22;70637;48.514;14.500;2023-07-13T01:45:30;24.00;57.10
81161;DHT22;70637;48.514;14.500;2023-07-13T01:47:56;24.00;57.10
81161;DHT22;70637;48.514;14.500;2023-07-13T01:50:23;24.00;57.00
81161;DHT22;70637;48.514;14.500;2023-07-13T01:52:49;24.00;57.00
81161;DHT22;70637;48.514;14.500;2023-07-13T01:55:15;24.10;57.10
81161;DHT22;70637;48.514;14.500;2023-07-13T01:57:40;24.20;56.90
81161;DHT22;70637;48.514;14.500;2023-07-13T02:00:08;24.20;56.90
81161;DHT22;70637;48.514;14.500;2023-07-13T02:02:34;24.20;56.70
81161;DHT22;70637;48.514;14.500;2023-07-13T02:04:59;24.30;56.50
81161;DHT22;70637;48.514;14.500;2023-07-13T02:07:25;24.30;56.40
81161;DHT22;70637;48.514;14.500;2023-07-13T02:09:51;24.40;56.40
81161;DHT22;70637;48.514;14.500;2023-07-13T02:12:16;24.40;56.20
81161;DHT22;70637;48.514;14.500;2023-07-13T02:14:42;24.50;56.00
81161;DHT22;70637;48.514;14.500;2023-07-13T02:17:10;24.50;55.70
81161;DHT22;70637;48.514;14.500;2023-07-13T02:19:35;24.50;55.80
81161;DHT22;70637;48.514;14.500;2023-07-13T02:22:02;24.50;55.90
81161;DHT22;70637;48.514;14.500;2023-07-13T02:24:28;24.50;56.30
81161;DHT22;70637;48.514;14.500;2023-07-13T02:26:53;24.50;56.20
81161;DHT22;70637;48.514;14.500;2023-07-13T02:29:19;24.60;56.10
81161;DHT22;70637;48.514;14.500;2023-07-13T02:31:46;24.60;56.10
81161;DHT22;70637;48.514;14.500;2023-07-13T02:34:12;24.60;56.20
81161;DHT22;70637;48.514;14.500;2023-07-13T02:36:38;24.70;56.20
81161;DHT22;70637;48.514;14.500;2023-07-13T02:39:05;24.70;56.30
81161;DHT22;70637;48.514;14.500;2023-07-13T02:41:30;24.70;56.20
81161;DHT22;70637;48.514;14.500;2023-07-13T02:43:58;24.70;56.10
81161;DHT22;70637;48.514;14.500;2023-07-13T02:46:33;24.70;55.70
81161;DHT22;70637;48.514;14.500;2023-07-13T02:48:58;24.70;55.60
81161;DHT22;70637;48.514;14.500;2023-07-13T02:51:24;24.80;55.60
81161;DHT22;70637;48.514;14.500;2023-07-13T02:53:50;24.80;55.40
81161;DHT22;70637;48.514;14.500;2023-07-13T02:56:18;24.70;55.10
81161;DHT22;70637;48.514;14.500;2023-07-13T02:58:44;24.60;55.20
81161;DHT22;70637;48.514;14.500;2023-07-13T03:01:12;24.60;55.30
81161;DHT22;70637;48.514;14.500;2023-07-13T03:03:38;24.50;56.30
81161;DHT22;70637;48.514;14.500;2023-07-13T03:06:05;24.50;55.40
81161;DHT22;70637;48.514;14.500;2023-07-13T03:08:32;24.50;55.50
81161;DHT22;70637;48.514;14.500;2023-07-13T03:11:06;24.50;55.60
81161;DHT22;70637;48.514;14.500;2023-07-13T03:13:33;24.50;55.90
81161;DHT22;70637;48.514;14.500;2023-07-13T03:16:00;24.60;55.80
81161;DHT22;70637;48.514;14.500;2023-07-13T03:18:27;24.60;55.60
81161;DHT22;70637;48.514;14.500;2023-07-13T03:20:53;24.60;55.80
81161;DHT22;70637;48.514;14.500;2023-07-13T03:23:20;24.50;55.90
81161;DHT22;70637;48.514;14.500;2023-07-13T03:25:46;24.50;56.10
81161;DHT22;70637;48.514;14.500;2023-07-13T03:28:12;24.50;56.30
81161;DHT22;70637;48.514;14.500;2023-07-13T03:30:38;24.50;56.30
81161;DHT22;70637;48.514;14.500;2023-07-13T03:33:04;24.50;56.10
81161;DHT22;70637;48.514;14.500;2023-07-13T03:35:30;24.50;56.00
81161;DHT22;70637;48.514;14.500;2023-07-13T03:37:55;24.60;55.80
81161;DHT22;70637;48.514;14.500;2023-07-13T03:40:22;24.70;55.80
81161;DHT22;70637;48.514;14.500;2023-07-13T03:42:47;24.70;55.70
81161;DHT22;70637;48.514;14.500;2023-07-13T03:45:13;24.70;55.80
81161;DHT22;70637;48.514;14.500;2023-07-13T03:47:39;24.70;55.70
81161;DHT22;70637;48.514;14.500;2023-07-13T03:50:05;24.70;55.50
81161;DHT22;70637;48.514;14.500;2023-07-13T03:52:30;24.70;55.60
81161;DHT22;70637;48.514;14.500;2023-07-13T03:54:56;24.70;55.80
81161;DHT22;70637;48.514;14.500;2023-07-13T03:57:22;24.70;55.70
81161;DHT22;70637;48.514;14.500;2023-07-13T03:59:48;24.70;55.60
81161;DHT22;70637;48.514;14.500;2023-07-13T04:02:14;24.70;55.40
81161;DHT22;70637;48.514;14.500;2023-07-13T04:04:39;24.70;55.60
81161;DHT22;70637;48.514;14.500;2023-07-13T04:07:06;24.70;55.60
81161;DHT22;70637;48.514;14.500;2023-07-13T04:09:33;24.70;55.70
81161;DHT22;70637;48.514;14.500;2023-07-13T04:11:59;24.70;55.70
81161;DHT22;70637;48.514;14.500;2023-07-13T04:14:25;24.60;55.70
81161;DHT22;70637;48.514;14.500;2023-07-13T04:16:50;24.60;55.90
81161;DHT22;70637;48.514;14.500;2023-07-13T04:19:16;24.50;55.90
81161;DHT22;70637;48.514;14.500;2023-07-13T04:21:42;24.50;56.10
81161;DHT22;70637;48.514;14.500;2023-07-13T04:24:08;24.50;56.30
81161;DHT22;70637;48.514;14.500;2023-07-13T04:26:34;24.40;56.40
81161;DHT22;70637;48.514;14.500;2023-07-13T04:29:01;24.40;56.40
81161;DHT22;70637;48.514;14.500;2023-07-13T04:31:29;24.40;56.50
81161;DHT22;70637;48.514;14.500;2023-07-13T04:33:55;24.50;56.60
81161;DHT22;70637;48.514;14.500;2023-07-13T04:36:20;24.50;56.50
81161;DHT22;70637;48.514;14.500;2023-07-13T04:38:46;24.50;56.40
81161;DHT22;70637;48.514;14.500;2023-07-13T04:41:13;24.50;56.50
81161;DHT22;70637;48.514;14.500;2023-07-13T04:43:39;24.40;56.60
81161;DHT22;70637;48.514;14.500;2023-07-13T04:46:10;24.40;56.90
81161;DHT22;70637;48.514;14.500;2023-07-13T04:48:37;24.30;57.00
81161;DHT22;70637;48.514;14.500;2023-07-13T04:51:03;24.40;56.90
81161;DHT22;70637;48.514;14.500;2023-07-13T04:53:29;24.40;56.80
81161;DHT22;70637;48.514;14.500;2023-07-13T04:55:55;24.50;56.80
81161;DHT22;70637;48.514;14.500;2023-07-13T04:58:22;24.50;56.60
81161;DHT22;70637;48.514;14.500;2023-07-13T05:00:48;24.50;56.50
81161;DHT22;70637;48.514;14.500;2023-07-13T05:03:13;24.50;56.50
81161;DHT22;70637;48.514;14.500;2023-07-13T05:05:39;24.50;56.60
81161;DHT22;70637;48.514;14.500;2023-07-13T05:08:05;24.40;56.70
81161;DHT22;70637;48.514;14.500;2023-07-13T05:10:30;24.30;56.90
81161;DHT22;70637;48.514;14.500;2023-07-13T05:12:56;24.30;57.10
81161;DHT22;70637;48.514;14.500;2023-07-13T05:15:22;24.30;57.20
81161;DHT22;70637;48.514;14.500;2023-07-13T05:17:49;24.30;57.30
81161;DHT22;70637;48.514;14.500;2023-07-13T05:20:15;24.30;57.20
81161;DHT22;70637;48.514;14.500;2023-07-13T05:22:42;24.40;57.20
81161;DHT22;70637;48.514;14.500;2023-07-13T05:25:08;24.50;57.20
81161;DHT22;70637;48.514;14.500;2023-07-13T05:27:35;24.50;57.20
81161;DHT22;70637;48.514;14.500;2023-07-13T05:30:01;24.50;57.10
81161;DHT22;70637;48.514;14.500;2023-07-13T05:32:27;24.60;57.00
81161;DHT22;70637;48.514;14.500;2023-07-13T05:34:52;24.60;57.00
81161;DHT22;70637;48.514;14.500;2023-07-13T05:37:18;24.60;57.00
81161;DHT22;70637;48.514;14.500;2023-07-13T05:39:45;24.60;57.20
81161;DHT22;70637;48.514;14.500;2023-07-13T05:42:10;24.50;57.00
81161;DHT22;70637;48.514;14.500;2023-07-13T05:44:36;24.50;57.20
81161;DHT22;70637;48.514;14.500;2023-07-13T05:47:01;24.50;57.50
81161;DHT22;70637;48.514;14.500;2023-07-13T05:49:27;24.50;57.60
81161;DHT22;70637;48.514;14.500;2023-07-13T05:51:53;24.60;57.60
81161;DHT22;70637;48.514;14.500;2023-07-13T05:54:18;24.70;57.70
81161;DHT22;70637;48.514;14.500;2023-07-13T05:56:44;24.70;57.40
81161;DHT22;70637;48.514;14.500;2023-07-13T05:59:10;24.70;57.30
81161;DHT22;70637;48.514;14.500;2023-07-13T06:01:35;24.70;57.10
81161;DHT22;70637;48.514;14.500;2023-07-13T06:04:01;24.70;56.90
81161;DHT22;70637;48.514;14.500;2023-07-13T06:06:27;24.70;56.70
81161;DHT22;70637;48.514;14.500;2023-07-13T06:08:52;24.80;56.60
81161;DHT22;70637;48.514;14.500;2023-07-13T06:11:21;24.80;56.40
81161;DHT22;70637;48.514;14.500;2023-07-13T06:13:47;24.90;56.00
81161;DHT22;70637;48.514;14.500;2023-07-13T06:16:13;24.80;55.10
81161;DHT22;70637;48.514;14.500;2023-07-13T06:18:40;24.80;54.70
81161;DHT22;70637;48.514;14.500;2023-07-13T06:21:12;24.80;54.70
81161;DHT22;70637;48.514;14.500;2023-07-13T06:23:38;24.70;54.40
81161;DHT22;70637;48.514;14.500;2023-07-13T06:26:05;24.60;54.20
81161;DHT22;70637;48.514;14.500;2023-07-13T06:28:31;24.50;54.60
81161;DHT22;70637;48.514;14.500;2023-07-13T06:30:58;24.50;54.90
81161;DHT22;70637;48.514;14.500;2023-07-13T06:33:24;24.50;54.90
81161;DHT22;70637;48.514;14.500;2023-07-13T06:35:50;24.60;54.90
81161;DHT22;70637;48.514;14.500;2023-07-13T06:38:15;24.50;54.60
81161;DHT22;70637;48.514;14.500;2023-07-13T06:40:41;24.50;54.70
81161;DHT22;70637;48.514;14.500;2023-07-13T06:43:07;24.50;54.60
81161;DHT22;70637;48.514;14.500;2023-07-13T06:45:41;24.50;54.50
81161;DHT22;70637;48.514;14.500;2023-07-13T06:48:07;24.50;54.70
81161;DHT22;70637;48.514;14.500;2023-07-13T06:50:33;24.50;54.50
81161;DHT22;70637;48.514;14.500;2023-07-13T06:52:59;24.60;54.00
81161;DHT22;70637;48.514;14.500;2023-07-13T06:55:25;24.60;53.70
81161;DHT22;70637;48.514;14.500;2023-07-13T06:57:51;24.60;54.00
81161;DHT22;70637;48.514;14.500;2023-07-13T07:00:17;24.70;54.10
81161;DHT22;70637;48.514;14.500;2023-07-13T07:02:43;24.70;54.00
81161;DHT22;70637;48.514;14.500;2023-07-13T07:05:09;24.70;53.90
81161;DHT22;70637;48.514;14.500;2023-07-13T07:07:34;24.70;53.40
81161;DHT22;70637;48.514;14.500;2023-07-13T07:10:00;24.70;53.30
81161;DHT22;70637;48.514;14.500;2023-07-13T07:12:26;24.70;53.20
81161;DHT22;70637;48.514;14.500;2023-07-13T07:14:51;24.70;53.10
81161;DHT22;70637;48.514;14.500;2023-07-13T07:17:17;24.70;53.30
81161;DHT22;70637;48.514;14.500;2023-07-13T07:19:43;24.70;53.20
81161;DHT22;70637;48.514;14.500;2023-07-13T07:22:08;24.80;52.60
81161;DHT22;70637;48.514;14.500;2023-07-13T07:24:34;24.80;52.60
81161;DHT22;70637;48.514;14.500;2023-07-13T07:26:59;24.80;52.40
81161;DHT22;70637;48.514;14.500;2023-07-13T07:29:25;24.90;52.20
81161;DHT22;70637;48.514;14.500;2023-07-13T07:31:53;24.80;52.50
81161;DHT22;70637;48.514;14.500;2023-07-13T07:34:19;24.90;52.20
81161;DHT22;70637;48.514;14.500;2023-07-13T07:36:45;24.90;51.90
81161;DHT22;70637;48.514;14.500;2023-07-13T07:39:11;24.90;52.10
81161;DHT22;70637;48.514;14.500;2023-07-13T07:41:37;25.00;52.20
81161;DHT22;70637;48.514;14.500;2023-07-13T07:44:03;25.00;51.70
81161;DHT22;70637;48.514;14.500;2023-07-13T07:46:30;24.90;51.00
81161;DHT22;70637;48.514;14.500;2023-07-13T07:48:56;25.00;50.70
81161;DHT22;70637;48.514;14.500;2023-07-13T07:51:22;25.10;50.60
81161;DHT22;70637;48.514;14.500;2023-07-13T07:53:48;25.00;50.50
81161;DHT22;70637;48.514;14.500;2023-07-13T07:56:14;25.10;50.20
81161;DHT22;70637;48.514;14.500;2023-07-13T07:58:42;25.10;50.30
81161;DHT22;70637;48.514;14.500;2023-07-13T08:01:08;25.30;50.20
81161;DHT22;70637;48.514;14.500;2023-07-13T08:03:34;25.30;49.90
81161;DHT22;70637;48.514;14.500;2023-07-13T08:06:00;25.40;50.10
81161;DHT22;70637;48.514;14.500;2023-07-13T08:08:25;25.40;50.10
81161;DHT22;70637;48.514;14.500;2023-07-13T08:10:52;25.50;48.70
81161;DHT22;70637;48.514;14.500;2023-07-13T08:13:17;25.40;48.70
81161;DHT22;70637;48.514;14.500;2023-07-13T08:15:43;25.30;48.30
81161;DHT22;70637;48.514;14.500;2023-07-13T08:18:09;25.40;48.40
81161;DHT22;70637;48.514;14.500;2023-07-13T08:20:38;25.40;48.50
81161;DHT22;70637;48.514;14.500;2023-07-13T08:23:04;25.40;48.70
81161;DHT22;70637;48.514;14.500;2023-07-13T08:25:29;25.50;47.30
81161;DHT22;70637;48.514;14.500;2023-07-13T08:27:55;25.40;47.20
81161;DHT22;70637;48.514;14.500;2023-07-13T08:30:20;25.40;47.40
81161;DHT22;70637;48.514;14.500;2023-07-13T08:32:46;25.50;47.60
81161;DHT22;70637;48.514;14.500;2023-07-13T08:35:12;25.60;48.20
81161;DHT22;70637;48.514;14.500;2023-07-13T08:37:39;25.40;46.40
81161;DHT22;70637;48.514;14.500;2023-07-13T08:40:05;25.40;46.10
81161;DHT22;70637;48.514;14.500;2023-07-13T08:47:44;25.30;46.60
81161;DHT22;70637;48.514;14.500;2023-07-13T08:50:17;25.30;46.90
81161;DHT22;70637;48.514;14.500;2023-07-13T08:52:44;25.40;47.30
81161;DHT22;70637;48.514;14.500;2023-07-13T08:55:20;25.50;47.20
81161;DHT22;70637;48.514;14.500;2023-07-13T08:57:53;25.50;46.50
81161;DHT22;70637;48.514;14.500;2023-07-13T09:00:20;25.50;46.70
81161;DHT22;70637;48.514;14.500;2023-07-13T09:02:56;25.50;47.00
81161;DHT22;70637;48.514;14.500;2023-07-13T09:05:38;25.60;46.80
81161;DHT22;70637;48.514;14.500;2023-07-13T09:10:53;25.60;46.70
81161;DHT22;70637;48.514;14.500;2023-07-13T09:13:55;25.60;46.70
81161;DHT22;70637;48.514;14.500;2023-07-13T09:16:24;25.60;46.10
81161;DHT22;70637;48.514;14.500;2023-07-13T09:18:52;25.60;46.70
81161;DHT22;70637;48.514;14.500;2023-07-13T09:21:31;25.50;46.80
81161;DHT22;70637;48.514;14.500;2023-07-13T09:26:42;25.60;46.50
81161;DHT22;70637;48.514;14.500;2023-07-13T09:29:16;25.60;46.10
81161;DHT22;70637;48.514;14.500;2023-07-13T09:31:49;25.60;45.80
81161;DHT22;70637;48.514;14.500;2023-07-13T09:34:17;25.60;45.90
81161;DHT22;70637;48.514;14.500;2023-07-13T09:36:43;25.60;46.40
81161;DHT22;70637;48.514;14.500;2023-07-13T09:39:34;25.60;48.10
81161;DHT22;70637;48.514;14.500;2023-07-13T09:42:19;25.60;46.70
81161;DHT22;70637;48.514;14.500;2023-07-13T09:45:00;25.70;46.50
81161;DHT22;70637;48.514;14.500;2023-07-13T09:47:30;25.80;46.00
81161;DHT22;70637;48.514;14.500;2023-07-13T09:50:01;25.80;46.20
81161;DHT22;70637;48.514;14.500;2023-07-13T09:52:27;25.90;46.70
81161;DHT22;70637;48.514;14.500;2023-07-13T09:54:54;25.90;46.60
81161;DHT22;70637;48.514;14.500;2023-07-13T09:57:27;26.00;45.90
81161;DHT22;70637;48.514;14.500;2023-07-13T09:59:55;25.90;45.90
81161;DHT22;70637;48.514;14.500;2023-07-13T10:02:33;25.80;45.80
81161;DHT22;70637;48.514;14.500;2023-07-13T10:07:31;25.80;45.90
81161;DHT22;70637;48.514;14.500;2023-07-13T10:09:59;25.70;45.40
81161;DHT22;70637;48.514;14.500;2023-07-13T10:12:27;25.70;46.00
81161;DHT22;70637;48.514;14.500;2023-07-13T10:14:55;25.70;46.20
81161;DHT22;70637;48.514;14.500;2023-07-13T10:17:30;25.80;46.20
81161;DHT22;70637;48.514;14.500;2023-07-13T10:20:05;25.80;45.80
81161;DHT22;70637;48.514;14.500;2023-07-13T10:22:54;25.80;45.40
81161;DHT22;70637;48.514;14.500;2023-07-13T10:25:25;25.80;45.00
81161;DHT22;70637;48.514;14.500;2023-07-13T10:27:53;25.90;45.60
81161;DHT22;70637;48.514;14.500;2023-07-13T10:30:25;25.90;45.20
81161;DHT22;70637;48.514;14.500;2023-07-13T10:32:53;26.00;44.70
81161;DHT22;70637;48.514;14.500;2023-07-13T10:35:20;26.00;44.70
81161;DHT22;70637;48.514;14.500;2023-07-13T10:40:31;26.10;44.10
81161;DHT22;70637;48.514;14.500;2023-07-13T10:43:02;26.20;43.60
81161;DHT22;70637;48.514;14.500;2023-07-13T10:45:33;26.30;42.80
81161;DHT22;70637;48.514;14.500;2023-07-13T10:47:59;26.20;42.50
81161;DHT22;70637;48.514;14.500;2023-07-13T10:50:27;26.30;42.10
81161;DHT22;70637;48.514;14.500;2023-07-13T10:52:55;26.30;42.20
81161;DHT22;70637;48.514;14.500;2023-07-13T10:58:32;26.30;42.00
81161;DHT22;70637;48.514;14.500;2023-07-13T11:01:17;26.20;41.30
81161;DHT22;70637;48.514;14.500;2023-07-13T11:19:37;26.20;42.10
81161;DHT22;70637;48.514;14.500;2023-07-13T11:25:26;26.50;42.70
81161;DHT22;70637;48.514;14.500;2023-07-13T11:28:05;26.60;42.20
81161;DHT22;70637;48.514;14.500;2023-07-13T11:38:22;26.90;39.90
81161;DHT22;70637;48.514;14.500;2023-07-13T11:40:50;26.80;39.20
81161;DHT22;70637;48.514;14.500;2023-07-13T11:43:16;26.80;39.20
81161;DHT22;70637;48.514;14.500;2023-07-13T11:45:43;26.90;39.80
81161;DHT22;70637;48.514;14.500;2023-07-13T11:48:38;27.00;38.90
81161;DHT22;70637;48.514;14.500;2023-07-13T11:51:04;27.00;37.80
81161;DHT22;70637;48.514;14.500;2023-07-13T11:53:44;27.00;38.30
81161;DHT22;70637;48.514;14.500;2023-07-13T11:56:10;26.90;37.30
81161;DHT22;70637;48.514;14.500;2023-07-13T11:58:36;26.80;37.00
81161;DHT22;70637;48.514;14.500;2023-07-13T12:01:02;26.80;36.80
81161;DHT22;70637;48.514;14.500;2023-07-13T12:03:30;26.90;37.20
81161;DHT22;70637;48.514;14.500;2023-07-13T12:06:02;27.00;37.20
81161;DHT22;70637;48.514;14.500;2023-07-13T12:08:28;27.00;36.80
81161;DHT22;70637;48.514;14.500;2023-07-13T12:10:59;27.10;37.20
81161;DHT22;70637;48.514;14.500;2023-07-13T12:13:27;27.20;37.10
81161;DHT22;70637;48.514;14.500;2023-07-13T12:15:56;27.40;37.00
81161;DHT22;70637;48.514;14.500;2023-07-13T12:18:23;27.50;36.60
81161;DHT22;70637;48.514;14.500;2023-07-13T12:20:57;27.50;35.60
81161;DHT22;70637;48.514;14.500;2023-07-13T12:23:34;27.40;35.60
81161;DHT22;70637;48.514;14.500;2023-07-13T12:26:06;27.30;35.50
81161;DHT22;70637;48.514;14.500;2023-07-13T12:31:05;27.30;35.80
81161;DHT22;70637;48.514;14.500;2023-07-13T12:33:33;27.30;36.30
81161;DHT22;70637;48.514;14.500;2023-07-13T12:36:04;27.40;35.60
81161;DHT22;70637;48.514;14.500;2023-07-13T12:38:32;27.60;35.70
81161;DHT22;70637;48.514;14.500;2023-07-13T12:40:58;27.60;36.10
81161;DHT22;70637;48.514;14.500;2023-07-13T12:43:24;27.70;36.10
81161;DHT22;70637;48.514;14.500;2023-07-13T12:46:05;27.70;36.10
81161;DHT22;70637;48.514;14.500;2023-07-13T12:48:42;27.80;35.30
81161;DHT22;70637;48.514;14.500;2023-07-13T12:51:12;27.90;35.60
81161;DHT22;70637;48.514;14.500;2023-07-13T12:53:56;27.90;35.30
81161;DHT22;70637;48.514;14.500;2023-07-13T12:56:24;27.80;34.30
81161;DHT22;70637;48.514;14.500;2023-07-13T12:58:58;27.70;34.20
81161;DHT22;70637;48.514;14.500;2023-07-13T13:01:27;27.70;34.90
81161;DHT22;70637;48.514;14.500;2023-07-13T13:03:54;27.90;34.10
81161;DHT22;70637;48.514;14.500;2023-07-13T13:06:26;27.90;34.50
81161;DHT22;70637;48.514;14.500;2023-07-13T13:08:55;28.10;34.30
81161;DHT22;70637;48.514;14.500;2023-07-13T13:11:22;28.40;34.20
81161;DHT22;70637;48.514;14.500;2023-07-13T13:13:49;28.60;34.50
81161;DHT22;70637;48.514;14.500;2023-07-13T13:18:44;29.20;33.80
81161;DHT22;70637;48.514;14.500;2023-07-13T13:21:10;29.30;32.50
81161;DHT22;70637;48.514;14.500;2023-07-13T13:23:36;29.30;32.00
81161;DHT22;70637;48.514;14.500;2023-07-13T13:26:05;29.00;32.00
81161;DHT22;70637;48.514;14.500;2023-07-13T13:28:31;28.80;31.60
81161;DHT22;70637;48.514;14.500;2023-07-13T13:30:58;28.60;32.50
81161;DHT22;70637;48.514;14.500;2023-07-13T13:33:23;28.60;33.40
81161;DHT22;70637;48.514;14.500;2023-07-13T13:35:49;28.70;33.80
81161;DHT22;70637;48.514;14.500;2023-07-13T13:38:17;28.80;33.50
81161;DHT22;70637;48.514;14.500;2023-07-13T13:40:45;28.90;33.40
81161;DHT22;70637;48.514;14.500;2023-07-13T13:43:18;29.10;33.80
81161;DHT22;70637;48.514;14.500;2023-07-13T13:45:45;29.10;33.30
81161;DHT22;70637;48.514;14.500;2023-07-13T13:48:16;29.20;32.70
81161;DHT22;70637;48.514;14.500;2023-07-13T13:50:43;29.10;32.80
81161;DHT22;70637;48.514;14.500;2023-07-13T13:53:13;29.00;32.50
81161;DHT22;70637;48.514;14.500;2023-07-13T13:55:41;28.90;32.70
81161;DHT22;70637;48.514;14.500;2023-07-13T13:58:09;28.80;33.40
81161;DHT22;70637;48.514;14.500;2023-07-13T14:00:36;28.80;32.90
81161;DHT22;70637;48.514;14.500;2023-07-13T14:03:02;28.80;33.20
81161;DHT22;70637;48.514;14.500;2023-07-13T14:05:28;28.90;32.80
81161;DHT22;70637;48.514;14.500;2023-07-13T14:07:54;29.00;33.50
81161;DHT22;70637;48.514;14.500;2023-07-13T14:10:22;28.90;33.00
81161;DHT22;70637;48.514;14.500;2023-07-13T14:12:52;29.00;32.50
81161;DHT22;70637;48.514;14.500;2023-07-13T14:15:25;29.10;31.50
81161;DHT22;70637;48.514;14.500;2023-07-13T14:17:52;29.10;31.50
81161;DHT22;70637;48.514;14.500;2023-07-13T14:20:22;29.10;31.60
81161;DHT22;70637;48.514;14.500;2023-07-13T14:22:49;29.10;31.70
81161;DHT22;70637;48.514;14.500;2023-07-13T14:25:16;29.40;31.50
81161;DHT22;70637;48.514;14.500;2023-07-13T14:27:43;29.50;31.70
81161;DHT22;70637;48.514;14.500;2023-07-13T14:30:17;29.60;30.90
81161;DHT22;70637;48.514;14.500;2023-07-13T14:32:43;29.60;30.60
81161;DHT22;70637;48.514;14.500;2023-07-13T14:35:14;29.60;30.40
81161;DHT22;70637;48.514;14.500;2023-07-13T14:37:40;29.60;30.40
81161;DHT22;70637;48.514;14.500;2023-07-13T14:40:28;29.50;31.10
81161;DHT22;70637;48.514;14.500;2023-07-13T14:42:54;29.50;31.20
81161;DHT22;70637;48.514;14.500;2023-07-13T14:45:20;29.50;30.90
81161;DHT22;70637;48.514;14.500;2023-07-13T14:47:46;29.50;31.30
81161;DHT22;70637;48.514;14.500;2023-07-13T14:50:18;29.50;31.30
81161;DHT22;70637;48.514;14.500;2023-07-13T14:52:44;29.50;31.20
81161;DHT22;70637;48.514;14.500;2023-07-13T14:55:16;29.80;31.40
81161;DHT22;70637;48.514;14.500;2023-07-13T14:57:42;30.00;30.70
81161;DHT22;70637;48.514;14.500;2023-07-13T15:00:19;30.30;30.90
81161;DHT22;70637;48.514;14.500;2023-07-13T15:02:50;30.60;30.50
81161;DHT22;70637;48.514;14.500;2023-07-13T15:05:18;30.60;30.40
81161;DHT22;70637;48.514;14.500;2023-07-13T15:07:44;30.60;30.40
81161;DHT22;70637;48.514;14.500;2023-07-13T15:10:19;30.60;30.00
81161;DHT22;70637;48.514;14.500;2023-07-13T15:12:44;30.70;30.00
81161;DHT22;70637;48.514;14.500;2023-07-13T15:15:11;30.70;30.00
81161;DHT22;70637;48.514;14.500;2023-07-13T15:20:30;30.60;29.90
81161;DHT22;70637;48.514;14.500;2023-07-13T15:22:58;30.60;30.00
81161;DHT22;70637;48.514;14.500;2023-07-13T15:25:26;30.70;30.10
81161;DHT22;70637;48.514;14.500;2023-07-13T15:27:53;30.90;29.90
81161;DHT22;70637;48.514;14.500;2023-07-13T15:30:20;30.80;29.10
81161;DHT22;70637;48.514;14.500;2023-07-13T15:32:46;30.70;29.10
81161;DHT22;70637;48.514;14.500;2023-07-13T15:35:20;30.50;29.10
81161;DHT22;70637;48.514;14.500;2023-07-13T15:37:46;30.70;29.40
81161;DHT22;70637;48.514;14.500;2023-07-13T15:40:13;31.00;29.40
81161;DHT22;70637;48.514;14.500;2023-07-13T15:42:40;31.10;28.70
81161;DHT22;70637;48.514;14.500;2023-07-13T15:45:24;31.10;27.70
81161;DHT22;70637;48.514;14.500;2023-07-13T15:47:51;31.10;28.00
81161;DHT22;70637;48.514;14.500;2023-07-13T15:50:21;31.30;27.90
81161;DHT22;70637;48.514;14.500;2023-07-13T15:52:53;31.10;27.40
81161;DHT22;70637;48.514;14.500;2023-07-13T15:55:19;31.00;27.60
81161;DHT22;70637;48.514;14.500;2023-07-13T15:57:50;30.90;27.40
81161;DHT22;70637;48.514;14.500;2023-07-13T16:00:25;30.70;27.10
81161;DHT22;70637;48.514;14.500;2023-07-13T16:02:52;30.70;27.70
81161;DHT22;70637;48.514;14.500;2023-07-13T16:05:19;30.80;27.80
81161;DHT22;70637;48.514;14.500;2023-07-13T16:07:46;30.90;27.80
81161;DHT22;70637;48.514;14.500;2023-07-13T16:10:33;30.90;27.80
81161;DHT22;70637;48.514;14.500;2023-07-13T16:13:00;31.00;27.60
81161;DHT22;70637;48.514;14.500;2023-07-13T16:15:26;31.20;27.50
81161;DHT22;70637;48.514;14.500;2023-07-13T16:17:53;31.20;27.50
81161;DHT22;70637;48.514;14.500;2023-07-13T16:20:20;31.10;27.50